Time;durP1;ratioP1;P1;durP2;ratioP2;P2;SDS_P1;SDS_P2;PMS_P1;PMS_P2;Temp;Humidity;BMP_temperature;BMP_pressure;BME280_temperature;BME280_humidity;BME280_pressure;Samples;Min_cycle;Max_cycle;Signal;HPM_P1;HPM_P2
2023/07/07 00:00:38;;;;;;;5.68;2.17;;;;;;;;;;5006787;28;20115;-80
2023/07/07 00:03:03;;;;;;;2.65;1.85;;;;;;;;;;5008758;28;20032;-79
2023/07/07 00:05:28;;;;;;;5.75;2.05;;;;;;;;;;5025011;28;20022;-80
2023/07/07 00:07:54;;;;;;;3.53;2.00;;;;;;;;;;5007680;28;20026;-80
2023/07/07 00:10:20;;;;;;;4.95;2.25;;;;;;;;;;5023654;28;20030;-79
2023/07/07 00:12:46;;;;;;;3.70;1.90;;;;;;;;;;5023586;28;20395;-80
2023/07/07 00:15:12;;;;;;;4.78;2.28;;;;;;;;;;5022771;28;20033;-80
2023/07/07 00:17:41;;;;;;;2.65;1.92;;;;;;;;;;5023087;28;20492;-79
2023/07/07 00:20:09;;;;;;;4.40;2.10;;;;;;;;;;5023495;28;20026;-80
2023/07/07 00:22:35;;;;;;;5.55;2.30;;;;;;;;;;5022677;28;20030;-80
2023/07/07 00:25:01;;;;;;;6.35;2.40;;;;;;;;;;5005636;28;20435;-81
2023/07/07 00:27:26;;;;;;;3.95;2.30;;;;;;;;;;5005726;28;20022;-80
2023/07/07 00:29:52;;;;;;;8.15;2.03;;;;;;;;;;5023394;28;20388;-80
2023/07/07 00:32:17;;;;;;;5.90;2.27;;;;;;;;;;5022897;28;20064;-80
2023/07/07 00:34:42;;;;;;;7.28;2.28;;;;;;;;;;5022497;28;20263;-80
2023/07/07 00:37:07;;;;;;;6.43;2.13;;;;;;;;;;5022659;28;20022;-80
2023/07/07 00:39:33;;;;;;;3.83;1.93;;;;;;;;;;5005057;28;20079;-80
2023/07/07 00:41:58;;;;;;;4.82;2.20;;;;;;;;;;5021913;28;20282;-81
2023/07/07 00:44:50;;;;;;;4.67;2.23;;;;;;;;;;5023084;28;20029;-80
2023/07/07 00:47:15;;;;;;;3.20;1.90;;;;;;;;;;5005077;28;20777;-80
2023/07/07 00:49:41;;;;;;;6.38;2.08;;;;;;;;;;5023706;28;20032;-80
2023/07/07 00:52:06;;;;;;;4.05;2.17;;;;;;;;;;5005151;28;20049;-80
2023/07/07 00:54:35;;;;;;;4.53;2.20;;;;;;;;;;5022079;28;20057;-80
2023/07/07 00:57:03;;;;;;;5.65;2.33;;;;;;;;;;5024193;28;20026;-80
2023/07/07 00:59:32;;;;;;;4.53;2.55;;;;;;;;;;5005167;28;20022;-79
2023/07/07 01:02:02;;;;;;;4.63;2.45;;;;;;;;;;5023340;28;20026;-80
2023/07/07 01:04:29;;;;;;;4.47;2.10;;;;;;;;;;5022253;28;20370;-79
2023/07/07 01:07:11;;;;;;;4.72;2.13;;;;;;;;;;5021943;28;20028;-80
2023/07/07 01:09:36;;;;;;;3.67;2.30;;;;;;;;;;5021816;28;20113;-81
2023/07/07 01:12:01;;;;;;;3.13;2.13;;;;;;;;;;5022077;28;20116;-80
2023/07/07 01:14:30;;;;;;;3.88;2.15;;;;;;;;;;5021278;28;20280;-78
2023/07/07 01:17:20;;;;;;;2.92;2.00;;;;;;;;;;5021741;28;20037;-78
2023/07/07 01:19:48;;;;;;;6.63;2.30;;;;;;;;;;5022803;28;20057;-78
2023/07/07 01:22:42;;;;;;;2.42;2.00;;;;;;;;;;5022841;28;20051;-78
2023/07/07 01:25:28;;;;;;;2.97;1.90;;;;;;;;;;4982570;28;20484;-78
2023/07/07 01:28:12;;;;;;;5.35;2.10;;;;;;;;;;5020470;28;20069;-78
2023/07/07 01:30:44;;;;;;;4.25;2.17;;;;;;;;;;5020196;28;20056;-77
2023/07/07 01:33:13;;;;;;;2.78;2.00;;;;;;;;;;5021475;28;20034;-78
2023/07/07 01:35:38;;;;;;;7.22;2.28;;;;;;;;;;5023059;28;20083;-79
2023/07/07 01:38:04;;;;;;;4.00;2.35;;;;;;;;;;5023297;28;20084;-79
2023/07/07 01:40:52;;;;;;;5.57;2.40;;;;;;;;;;5024201;28;20036;-79
2023/07/07 01:43:36;;;;;;;4.38;2.30;;;;;;;;;;5005185;28;20022;-79
2023/07/07 01:46:12;;;;;;;4.45;2.05;;;;;;;;;;5004657;28;20018;-78
2023/07/07 01:48:45;;;;;;;3.08;1.95;;;;;;;;;;5003178;28;20030;-80
2023/07/07 01:51:13;;;;;;;2.88;1.95;;;;;;;;;;5004375;28;20373;-79
2023/07/07 01:53:41;;;;;;;3.22;2.40;;;;;;;;;;5020285;28;20108;-79
2023/07/07 01:56:09;;;;;;;5.35;2.13;;;;;;;;;;5021452;28;20082;-80
2023/07/07 01:58:35;;;;;;;3.42;2.20;;;;;;;;;;5021226;28;20453;-79
2023/07/07 02:01:02;;;;;;;4.40;2.38;;;;;;;;;;5021955;28;20033;-78
2023/07/07 02:03:28;;;;;;;4.15;2.13;;;;;;;;;;5023087;28;20131;-80
2023/07/07 02:05:53;;;;;;;4.38;2.10;;;;;;;;;;5022494;28;20030;-81
2023/07/07 02:08:18;;;;;;;5.85;2.60;;;;;;;;;;5023232;28;20061;-80
2023/07/07 02:10:44;;;;;;;4.35;2.10;;;;;;;;;;5005498;28;20029;-80
2023/07/07 02:13:10;;;;;;;5.18;2.10;;;;;;;;;;5022966;28;20030;-79
2023/07/07 02:15:35;;;;;;;3.25;2.13;;;;;;;;;;5021839;28;20116;-80
2023/07/07 02:18:01;;;;;;;5.70;2.00;;;;;;;;;;5023248;28;20026;-79
2023/07/07 02:20:27;;;;;;;5.22;2.30;;;;;;;;;;5006165;28;20018;-79
2023/07/07 02:22:52;;;;;;;4.60;2.20;;;;;;;;;;5022447;28;20067;-78
2023/07/07 02:25:17;;;;;;;3.85;2.30;;;;;;;;;;5022715;28;20310;-79
2023/07/07 02:27:43;;;;;;;4.22;2.00;;;;;;;;;;5021412;28;20172;-77
2023/07/07 02:30:08;;;;;;;7.20;2.00;;;;;;;;;;5020746;28;20076;-79
2023/07/07 02:32:33;;;;;;;3.90;2.20;;;;;;;;;;5020993;28;20025;-78
2023/07/07 02:35:01;;;;;;;3.85;2.20;;;;;;;;;;5020188;28;20038;-79
2023/07/07 02:37:26;;;;;;;2.92;2.05;;;;;;;;;;5020281;28;20045;-79
2023/07/07 02:39:52;;;;;;;6.40;2.30;;;;;;;;;;5020104;28;20022;-77
2023/07/07 02:42:17;;;;;;;7.53;2.60;;;;;;;;;;5020198;28;20275;-78
2023/07/07 02:44:42;;;;;;;4.82;2.38;;;;;;;;;;5019960;28;20030;-78
2023/07/07 02:47:09;;;;;;;3.53;2.10;;;;;;;;;;5020489;28;20093;-78
2023/07/07 02:49:34;;;;;;;4.78;2.40;;;;;;;;;;5002873;28;20365;-79
2023/07/07 02:52:00;;;;;;;8.85;2.30;;;;;;;;;;5002225;28;20018;-79
2023/07/07 02:54:25;;;;;;;7.40;2.22;;;;;;;;;;5020021;28;20021;-78
2023/07/07 02:56:50;;;;;;;3.05;2.10;;;;;;;;;;5018816;28;20057;-78
2023/07/07 02:59:16;;;;;;;2.65;2.17;;;;;;;;;;4999643;28;20026;-78
2023/07/07 03:01:44;;;;;;;6.93;2.17;;;;;;;;;;5018836;28;20032;-78
2023/07/07 03:04:10;;;;;;;7.40;2.50;;;;;;;;;;5019624;28;20267;-79
2023/07/07 03:06:36;;;;;;;4.45;2.10;;;;;;;;;;5019299;28;20021;-78
2023/07/07 03:09:01;;;;;;;3.90;2.13;;;;;;;;;;5017548;28;20532;-78
2023/07/07 03:11:26;;;;;;;2.43;1.90;;;;;;;;;;5018806;28;20473;-78
2023/07/07 03:13:51;;;;;;;4.53;2.40;;;;;;;;;;5001265;28;20283;-78
2023/07/07 03:16:23;;;;;;;3.35;2.17;;;;;;;;;;5018777;28;20658;-78
2023/07/07 03:18:51;;;;;;;4.68;2.50;;;;;;;;;;5001641;28;20079;-79
2023/07/07 03:21:18;;;;;;;3.15;2.40;;;;;;;;;;5019461;28;20072;-78
2023/07/07 03:23:43;;;;;;;5.05;2.17;;;;;;;;;;5001617;28;20073;-78
2023/07/07 03:26:14;;;;;;;2.88;2.05;;;;;;;;;;5001195;28;20396;-78
2023/07/07 03:28:40;;;;;;;5.03;2.40;;;;;;;;;;5017602;28;20030;-78
2023/07/07 03:31:25;;;;;;;4.28;2.28;;;;;;;;;;5019340;28;20507;-78
2023/07/07 03:33:53;;;;;;;9.35;2.65;;;;;;;;;;5019554;28;20572;-77
2023/07/07 03:36:22;;;;;;;6.22;2.30;;;;;;;;;;5019151;28;20090;-80
2023/07/07 03:38:47;;;;;;;4.43;2.00;;;;;;;;;;5002098;28;20061;-79
2023/07/07 03:41:15;;;;;;;3.67;2.40;;;;;;;;;;5019474;28;20030;-78
2023/07/07 03:43:44;;;;;;;8.45;2.60;;;;;;;;;;5018919;28;20076;-79
2023/07/07 03:46:14;;;;;;;6.88;2.60;;;;;;;;;;5001608;28;20476;-78
2023/07/07 03:48:39;;;;;;;3.80;2.35;;;;;;;;;;5019466;28;20025;-79
2023/07/07 03:51:04;;;;;;;6.97;2.70;;;;;;;;;;5000992;28;20076;-79
2023/07/07 03:53:31;;;;;;;6.20;2.42;;;;;;;;;;5018780;28;20271;-79
2023/07/07 03:55:57;;;;;;;4.68;2.75;;;;;;;;;;5017809;28;20041;-78
2023/07/07 03:58:24;;;;;;;4.35;2.25;;;;;;;;;;5001916;28;20034;-78
2023/07/07 04:00:50;;;;;;;6.13;2.60;;;;;;;;;;5017533;28;20030;-79
2023/07/07 04:03:17;;;;;;;3.13;2.20;;;;;;;;;;5017354;28;20392;-77
2023/07/07 04:05:44;;;;;;;5.07;2.63;;;;;;;;;;5000326;28;20048;-79
2023/07/07 04:08:09;;;;;;;4.15;2.63;;;;;;;;;;5017214;28;20587;-78
2023/07/07 04:10:35;;;;;;;3.90;2.40;;;;;;;;;;5015951;28;20097;-78
2023/07/07 04:13:00;;;;;;;5.03;2.42;;;;;;;;;;5014461;28;20499;-77
2023/07/07 04:15:25;;;;;;;4.03;2.53;;;;;;;;;;5014782;28;20555;-78
2023/07/07 04:17:50;;;;;;;8.20;2.80;;;;;;;;;;4997950;28;20099;-78
2023/07/07 04:20:16;;;;;;;3.50;2.23;;;;;;;;;;4997465;28;20446;-78
2023/07/07 04:22:41;;;;;;;3.30;2.43;;;;;;;;;;5015649;28;20793;-78
2023/07/07 04:25:12;;;;;;;5.27;2.50;;;;;;;;;;4997839;28;20260;-78
2023/07/07 04:27:37;;;;;;;6.47;2.85;;;;;;;;;;5016112;28;20263;-78
2023/07/07 04:30:04;;;;;;;8.57;2.45;;;;;;;;;;5016771;28;20084;-77
2023/07/07 04:32:29;;;;;;;3.67;2.45;;;;;;;;;;5014883;28;20026;-78
2023/07/07 04:34:54;;;;;;;4.10;2.70;;;;;;;;;;5014838;28;20021;-77
2023/07/07 04:37:20;;;;;;;4.90;2.85;;;;;;;;;;4996909;28;20033;-77
2023/07/07 04:39:45;;;;;;;5.18;2.60;;;;;;;;;;5017949;28;20025;-77
2023/07/07 04:42:10;;;;;;;5.88;2.42;;;;;;;;;;5002079;28;20065;-78
2023/07/07 04:44:35;;;;;;;4.90;2.30;;;;;;;;;;5002707;28;20061;-78
2023/07/07 04:47:01;;;;;;;6.80;2.53;;;;;;;;;;5019785;28;20252;-78
2023/07/07 04:49:26;;;;;;;9.80;2.60;;;;;;;;;;5019875;28;20259;-78
2023/07/07 04:51:51;;;;;;;3.83;2.20;;;;;;;;;;5001587;28;20022;-78
2023/07/07 04:54:16;;;;;;;4.37;2.40;;;;;;;;;;5002361;28;20287;-78
2023/07/07 04:56:44;;;;;;;4.13;2.30;;;;;;;;;;5021213;28;20267;-78
2023/07/07 04:59:09;;;;;;;7.78;2.65;;;;;;;;;;5020644;28;20334;-78
2023/07/07 05:01:36;;;;;;;3.90;2.75;;;;;;;;;;5020658;28;20049;-78
2023/07/07 05:04:03;;;;;;;3.63;2.42;;;;;;;;;;5003115;28;20022;-79
2023/07/07 05:06:31;;;;;;;5.80;2.67;;;;;;;;;;5021745;28;20041;-80
2023/07/07 05:08:57;;;;;;;7.47;2.33;;;;;;;;;;5005121;28;20037;-80
2023/07/07 05:11:25;;;;;;;5.65;2.22;;;;;;;;;;5024145;28;20399;-80
2023/07/07 05:13:51;;;;;;;5.63;2.22;;;;;;;;;;5025326;28;20026;-79
2023/07/07 05:16:19;;;;;;;5.28;2.50;;;;;;;;;;5025136;28;20125;-79
2023/07/07 05:18:45;;;;;;;4.95;2.67;;;;;;;;;;5024837;28;20476;-80
2023/07/07 05:21:11;;;;;;;6.57;2.40;;;;;;;;;;5007952;28;20067;-79
2023/07/07 05:23:37;;;;;;;6.07;2.45;;;;;;;;;;5007582;28;20030;-80
2023/07/07 05:26:03;;;;;;;5.25;2.40;;;;;;;;;;5024882;28;20093;-78
2023/07/07 05:28:28;;;;;;;4.00;2.30;;;;;;;;;;5002566;28;20021;-81
2023/07/07 05:30:54;;;;;;;5.53;2.60;;;;;;;;;;5018573;28;20029;-79
2023/07/07 05:33:20;;;;;;;5.70;2.30;;;;;;;;;;5019562;28;20030;-78
2023/07/07 05:35:47;;;;;;;4.57;2.70;;;;;;;;;;5020442;28;20036;-79
2023/07/07 05:38:12;;;;;;;3.10;2.25;;;;;;;;;;5001284;28;20113;-78
2023/07/07 05:40:39;;;;;;;4.72;2.70;;;;;;;;;;5001482;28;20022;-78
2023/07/07 05:43:04;;;;;;;3.10;2.30;;;;;;;;;;5002866;28;20032;-77
2023/07/07 05:45:30;;;;;;;2.97;2.20;;;;;;;;;;5002681;28;20097;-78
2023/07/07 05:47:55;;;;;;;4.50;2.60;;;;;;;;;;5020249;28;20295;-77
2023/07/07 05:50:20;;;;;;;8.83;2.50;;;;;;;;;;5003288;28;20271;-79
2023/07/07 05:52:48;;;;;;;3.20;2.30;;;;;;;;;;5021491;28;20630;-78
2023/07/07 05:55:24;;;;;;;4.80;2.30;;;;;;;;;;5003640;28;20291;-79
2023/07/07 05:57:49;;;;;;;4.07;2.30;;;;;;;;;;5003471;28;20057;-78
2023/07/07 06:00:16;;;;;;;6.20;2.60;;;;;;;;;;5021717;28;20081;-80
2023/07/07 06:02:41;;;;;;;4.88;2.85;;;;;;;;;;5002260;28;20289;-78
2023/07/07 06:05:07;;;;;;;3.50;2.23;;;;;;;;;;5002584;28;20026;-78
2023/07/07 06:07:32;;;;;;;4.72;2.40;;;;;;;;;;5002474;28;20321;-80
2023/07/07 06:09:57;;;;;;;4.10;2.15;;;;;;;;;;5020001;28;20462;-79
2023/07/07 06:12:23;;;;;;;3.75;2.10;;;;;;;;;;5020330;28;20094;-79
2023/07/07 06:14:48;;;;;;;6.15;2.22;;;;;;;;;;5020636;28;20087;-80
2023/07/07 06:17:14;;;;;;;6.27;2.30;;;;;;;;;;5019979;28;20413;-80
2023/07/07 06:19:39;;;;;;;4.20;1.95;;;;;;;;;;5002776;28;20599;-80
2023/07/07 06:22:04;;;;;;;8.43;2.40;;;;;;;;;;5020415;28;20030;-80
2023/07/07 06:24:30;;;;;;;2.92;2.05;;;;;;;;;;5019606;28;20264;-80
2023/07/07 06:26:55;;;;;;;3.70;2.30;;;;;;;;;;5019747;28;20029;-80
2023/07/07 06:29:20;;;;;;;6.37;2.47;;;;;;;;;;5003274;28;20366;-79
2023/07/07 06:31:45;;;;;;;3.67;2.20;;;;;;;;;;5002058;28;20287;-80
2023/07/07 06:34:11;;;;;;;3.17;2.35;;;;;;;;;;5020377;28;20290;-80
2023/07/07 06:36:36;;;;;;;4.50;2.10;;;;;;;;;;5002675;28;20057;-80
2023/07/07 06:39:01;;;;;;;3.50;2.37;;;;;;;;;;5020249;28;20267;-80
2023/07/07 06:41:26;;;;;;;7.33;2.43;;;;;;;;;;5000562;28;20279;-83
2023/07/07 06:43:53;;;;;;;3.30;2.00;;;;;;;;;;5018592;28;20267;-81
2023/07/07 06:46:23;;;;;;;11.80;2.47;;;;;;;;;;5019497;28;20033;-80
2023/07/07 06:48:48;;;;;;;4.05;2.35;;;;;;;;;;5017975;28;20030;-78
2023/07/07 06:51:13;;;;;;;5.07;2.20;;;;;;;;;;5021885;28;20033;-78
2023/07/07 06:53:38;;;;;;;7.47;2.40;;;;;;;;;;5001543;28;20248;-79
2023/07/07 06:56:04;;;;;;;7.82;2.38;;;;;;;;;;5002491;28;20283;-79
2023/07/07 06:58:30;;;;;;;6.65;2.50;;;;;;;;;;5019728;28;20065;-78
2023/07/07 07:00:55;;;;;;;4.38;2.40;;;;;;;;;;5019971;28;20056;-77
2023/07/07 07:03:20;;;;;;;3.70;2.40;;;;;;;;;;5018493;28;20373;-82
2023/07/07 07:05:46;;;;;;;7.18;2.28;;;;;;;;;;5000461;28;20274;-82
2023/07/07 07:08:12;;;;;;;5.88;2.50;;;;;;;;;;5017809;28;20049;-82
2023/07/07 07:10:37;;;;;;;7.28;2.60;;;;;;;;;;5001151;28;20046;-82
2023/07/07 07:13:02;;;;;;;4.20;1.90;;;;;;;;;;5000499;28;20100;-81
2023/07/07 07:15:27;;;;;;;4.67;2.37;;;;;;;;;;5000665;28;20310;-81
2023/07/07 07:17:52;;;;;;;8.23;2.33;;;;;;;;;;4999705;28;20259;-79
2023/07/07 07:20:18;;;;;;;4.33;2.27;;;;;;;;;;5017968;28;20263;-80
2023/07/07 07:22:44;;;;;;;4.95;2.20;;;;;;;;;;4999919;28;20263;-79
2023/07/07 07:25:09;;;;;;;5.47;2.28;;;;;;;;;;5019774;28;20052;-79
2023/07/07 07:27:37;;;;;;;6.38;2.28;;;;;;;;;;5019792;28;20076;-78
2023/07/07 07:30:03;;;;;;;6.75;2.35;;;;;;;;;;5000398;28;20491;-79
2023/07/07 07:32:28;;;;;;;4.65;2.40;;;;;;;;;;5017262;28;20028;-78
2023/07/07 07:34:54;;;;;;;6.00;2.20;;;;;;;;;;4999898;28;20124;-78
2023/07/07 07:37:19;;;;;;;3.72;2.25;;;;;;;;;;5019028;28;20298;-78
2023/07/07 07:39:44;;;;;;;8.20;2.23;;;;;;;;;;5018554;28;20022;-78
2023/07/07 07:42:09;;;;;;;11.60;2.33;;;;;;;;;;5016300;28;20366;-78
2023/07/07 07:44:34;;;;;;;6.03;2.17;;;;;;;;;;4997840;28;20306;-77
2023/07/07 07:47:00;;;;;;;8.30;2.40;;;;;;;;;;5015811;28;20267;-77
2023/07/07 07:49:27;;;;;;;7.68;2.28;;;;;;;;;;5015293;28;20258;-78
2023/07/07 07:51:53;;;;;;;3.70;2.30;;;;;;;;;;5014633;28;20026;-78
2023/07/07 07:54:20;;;;;;;4.28;2.20;;;;;;;;;;4997681;28;20038;-78
2023/07/07 07:56:46;;;;;;;5.90;2.35;;;;;;;;;;5016052;28;20022;-79
2023/07/07 07:59:11;;;;;;;3.95;2.20;;;;;;;;;;5017700;28;20053;-78
2023/07/07 08:01:37;;;;;;;3.40;2.13;;;;;;;;;;5015598;28;20598;-77
2023/07/07 08:04:03;;;;;;;3.92;1.83;;;;;;;;;;4997119;28;20026;-77
2023/07/07 08:06:29;;;;;;;5.28;1.90;;;;;;;;;;4997222;28;20032;-80
2023/07/07 08:08:54;;;;;;;4.22;1.83;;;;;;;;;;4998329;28;20109;-78
2023/07/07 08:11:29;;;;;;;7.83;2.10;;;;;;;;;;5015166;28;20101;-79
2023/07/07 08:13:54;;;;;;;4.60;2.30;;;;;;;;;;5016889;28;20829;-78
2023/07/07 08:16:20;;;;;;;4.93;2.15;;;;;;;;;;5020725;28;20053;-79
2023/07/07 08:18:46;;;;;;;3.45;1.83;;;;;;;;;;5002093;28;20503;-78
2023/07/07 08:21:11;;;;;;;3.20;2.03;;;;;;;;;;5005796;28;20026;-78
2023/07/07 08:23:36;;;;;;;3.50;2.20;;;;;;;;;;5026288;28;20270;-79
2023/07/07 08:26:01;;;;;;;3.45;2.13;;;;;;;;;;5025921;28;20299;-79
2023/07/07 08:28:27;;;;;;;5.97;2.35;;;;;;;;;;5009666;28;20093;-79
2023/07/07 08:30:52;;;;;;;3.30;2.08;;;;;;;;;;5025416;28;20435;-79
2023/07/07 08:33:18;;;;;;;3.77;2.13;;;;;;;;;;5023967;28;20036;-78
2023/07/07 08:35:43;;;;;;;4.18;2.20;;;;;;;;;;5007602;28;20036;-80
2023/07/07 08:38:09;;;;;;;4.82;2.00;;;;;;;;;;5025263;28;20022;-79
2023/07/07 08:40:47;;;;;;;3.43;2.13;;;;;;;;;;5004502;28;20121;-78
2023/07/07 08:43:15;;;;;;;6.35;2.17;;;;;;;;;;5019028;28;20317;-77
2023/07/07 08:45:44;;;;;;;2.97;2.08;;;;;;;;;;5001747;28;20022;-78
2023/07/07 08:48:43;;;;;;;15.73;2.22;;;;;;;;;;5018073;28;20481;-78
2023/07/07 08:51:16;;;;;;;5.00;2.00;;;;;;;;;;5019507;28;20030;-77
2023/07/07 08:53:56;;;;;;;6.25;2.38;;;;;;;;;;5019006;28;20108;-77
2023/07/07 08:56:28;;;;;;;3.53;1.80;;;;;;;;;;5018689;28;20084;-80
2023/07/07 08:59:26;;;;;;;7.32;2.30;;;;;;;;;;5004913;28;20025;-81
2023/07/07 09:01:59;;;;;;;5.57;2.22;;;;;;;;;;5005129;28;20042;-80
2023/07/07 09:04:53;;;;;;;3.17;1.90;;;;;;;;;;5024314;28;20061;-80
2023/07/07 09:07:37;;;;;;;4.93;2.00;;;;;;;;;;5023840;28;20034;-80
2023/07/07 09:10:02;;;;;;;;;;;;;;;;;;5025054;28;20338;-80
2023/07/07 09:12:43;;;;;;;7.97;2.20;;;;;;;;;;5005439;28;19944;-78
2023/07/07 09:15:15;;;;;;;6.95;1.95;;;;;;;;;;5022830;28;20572;-79
2023/07/07 09:17:46;;;;;;;3.45;2.10;;;;;;;;;;5022594;28;20033;-80
2023/07/07 09:20:14;;;;;;;2.78;1.90;;;;;;;;;;5023173;28;20025;-80
2023/07/07 09:22:47;;;;;;;4.00;1.92;;;;;;;;;;5021196;28;20030;-80
2023/07/07 09:25:26;;;;;;;6.10;2.28;;;;;;;;;;5003521;28;20028;-80
2023/07/07 09:28:02;;;;;;;4.45;1.73;;;;;;;;;;5004032;28;20064;-80
2023/07/07 09:30:35;;;;;;;3.38;1.80;;;;;;;;;;5021246;28;20041;-80
2023/07/07 09:33:00;;;;;;;4.30;2.22;;;;;;;;;;5002901;28;20048;-80
2023/07/07 09:35:35;;;;;;;5.90;2.08;;;;;;;;;;5002059;28;20097;-79
2023/07/07 09:38:31;;;;;;;4.80;1.65;;;;;;;;;;5021051;28;20112;-80
2023/07/07 09:41:12;;;;;;;4.75;1.92;;;;;;;;;;5005438;28;20025;-80
2023/07/07 09:43:45;;;;;;;3.28;1.70;;;;;;;;;;5022263;28;20026;-80
2023/07/07 09:46:16;;;;;;;3.93;1.97;;;;;;;;;;5025405;28;20033;-81
2023/07/07 09:48:57;;;;;;;2.63;1.70;;;;;;;;;;5021056;28;20092;-81
2023/07/07 09:51:46;;;;;;;3.97;1.92;;;;;;;;;;5021998;28;20029;-80
2023/07/07 09:54:15;;;;;;;5.35;2.20;;;;;;;;;;5003503;28;20041;-80
2023/07/07 09:57:03;;;;;;;3.80;1.92;;;;;;;;;;5003739;28;20475;-80
2023/07/07 09:59:34;;;;;;;2.75;1.75;;;;;;;;;;5021086;28;20485;-80
2023/07/07 10:02:00;;;;;;;3.70;1.90;;;;;;;;;;5020218;28;20030;-80
2023/07/07 10:04:29;;;;;;;3.60;1.80;;;;;;;;;;5019781;28;20026;-79
2023/07/07 10:07:06;;;;;;;3.60;1.90;;;;;;;;;;5019952;28;20030;-80
2023/07/07 10:09:31;;;;;;;2.22;1.70;;;;;;;;;;5020262;28;20033;-80
2023/07/07 10:11:57;;;;;;;6.07;1.55;;;;;;;;;;5022470;28;20018;-80
2023/07/07 10:14:27;;;;;;;2.88;1.73;;;;;;;;;;5003692;28;20526;-80
2023/07/07 10:17:01;;;;;;;2.55;1.88;;;;;;;;;;5022390;28;20043;-81
2023/07/07 10:19:26;;;;;;;2.97;1.85;;;;;;;;;;5022326;28;20026;-82
2023/07/07 10:21:52;;;;;;;3.30;1.90;;;;;;;;;;5003246;28;20079;-81
2023/07/07 10:24:17;;;;;;;2.63;1.65;;;;;;;;;;5023657;28;20480;-81
2023/07/07 10:26:47;;;;;;;6.38;1.70;;;;;;;;;;5023485;28;20030;-80
2023/07/07 10:29:16;;;;;;;2.85;1.80;;;;;;;;;;5024013;28;20022;-80
2023/07/07 10:31:42;;;;;;;3.58;1.88;;;;;;;;;;5024682;28;20014;-81
2023/07/07 10:34:40;;;;;;;5.68;2.05;;;;;;;;;;5005856;28;20033;-80
2023/07/07 10:37:28;;;;;;;2.78;1.52;;;;;;;;;;5008135;28;20395;-81
2023/07/07 10:39:55;;;;;;;4.50;1.80;;;;;;;;;;5026896;28;20089;-80
2023/07/07 10:42:25;;;;;;;3.22;1.80;;;;;;;;;;5018811;28;20060;-79
2023/07/07 10:44:52;;;;;;;3.35;2.03;;;;;;;;;;5000414;28;20029;-79
2023/07/07 10:47:27;;;;;;;5.70;2.00;;;;;;;;;;5018919;28;20029;-78
2023/07/07 10:49:53;;;;;;;3.30;1.80;;;;;;;;;;5022393;28;20026;-78
2023/07/07 10:52:46;;;;;;;3.92;1.88;;;;;;;;;;5004260;28;20033;-78
2023/07/07 10:55:20;;;;;;;3.40;1.80;;;;;;;;;;5021876;28;20026;-78
2023/07/07 10:57:48;;;;;;;2.65;1.52;;;;;;;;;;5005578;28;20038;-78
2023/07/07 11:00:30;;;;;;;2.65;1.90;;;;;;;;;;5024443;28;20030;-78
2023/07/07 11:03:21;;;;;;;3.20;1.80;;;;;;;;;;5005695;28;20057;-79
2023/07/07 11:05:53;;;;;;;2.95;1.95;;;;;;;;;;5004089;28;20032;-78
2023/07/07 11:08:32;;;;;;;3.53;1.80;;;;;;;;;;5022516;28;20040;-78
2023/07/07 11:11:13;;;;;;;6.68;1.80;;;;;;;;;;5022519;28;20026;-78
2023/07/07 11:14:07;;;;;;;2.75;1.75;;;;;;;;;;5003808;28;20032;-78
2023/07/07 11:16:47;;;;;;;2.53;1.70;;;;;;;;;;5022093;28;20029;-78
2023/07/07 11:19:48;;;;;;;5.50;2.13;;;;;;;;;;5023366;28;20030;-78
2023/07/07 11:22:45;;;;;;;4.50;2.00;;;;;;;;;;5020406;28;20038;-77
2023/07/07 11:25:37;;;;;;;2.30;1.85;;;;;;;;;;5020839;28;20034;-78
2023/07/07 11:28:20;;;;;;;3.72;2.10;;;;;;;;;;4996474;28;20033;-79
2023/07/07 11:31:21;;;;;;;31.92;14.05;;;;;;;;;;4999471;28;20053;-80
2023/07/07 11:34:29;;;;;;;3.53;2.08;;;;;;;;;;5014464;28;20033;-75
2023/07/07 11:37:17;;;;;;;7.03;2.35;;;;;;;;;;5017460;28;20026;-76
2023/07/07 11:39:47;;;;;;;3.85;2.03;;;;;;;;;;5017767;28;20118;-78
2023/07/07 11:42:35;;;;;;;5.55;2.28;;;;;;;;;;4986127;28;20053;-78
2023/07/07 11:45:08;;;;;;;5.95;2.20;;;;;;;;;;4999831;28;20022;-79
2023/07/07 11:47:46;;;;;;;6.65;2.10;;;;;;;;;;5016863;28;20503;-78
2023/07/07 11:50:30;;;;;;;4.68;2.03;;;;;;;;;;5015822;28;20511;-79
2023/07/07 11:52:55;;;;;;;5.65;2.00;;;;;;;;;;5016607;28;20014;-80
2023/07/07 11:55:38;;;;;;;4.80;1.90;;;;;;;;;;5016092;28;20044;-79
2023/07/07 11:58:10;;;;;;;9.18;2.00;;;;;;;;;;5016886;28;20030;-79
2023/07/07 12:01:05;;;;;;;3.72;2.15;;;;;;;;;;5017316;28;20030;-80
2023/07/07 12:03:34;;;;;;;;;;;;;;;;;;5020072;28;20022;-79
2023/07/07 12:06:06;;;;;;;5.47;2.00;;;;;;;;;;5001090;28;19917;-79
2023/07/07 12:08:49;;;;;;;4.70;2.38;;;;;;;;;;4997810;28;20032;-79
2023/07/07 12:11:17;;;;;;;6.25;2.35;;;;;;;;;;5016800;28;20045;-78
2023/07/07 12:13:59;;;;;;;2.80;2.00;;;;;;;;;;5020102;28;20040;-78
2023/07/07 12:16:27;;;;;;;4.38;2.30;;;;;;;;;;4999826;28;20400;-77
2023/07/07 12:19:10;;;;;;;3.35;1.90;;;;;;;;;;5019612;28;20025;-78
2023/07/07 12:21:37;;;;;;;4.07;1.85;;;;;;;;;;5019363;28;20524;-78
2023/07/07 12:24:14;;;;;;;2.30;2.00;;;;;;;;;;5020714;28;20025;-77
2023/07/07 12:26:51;;;;;;;5.32;2.38;;;;;;;;;;5019395;28;20026;-79
2023/07/07 12:29:17;;;;;;;6.82;1.88;;;;;;;;;;5016452;28;20025;-77
2023/07/07 12:31:43;;;;;;;12.90;2.40;;;;;;;;;;4998657;28;20022;-78
2023/07/07 12:34:37;;;;;;;3.58;2.30;;;;;;;;;;5015966;28;20060;-76
2023/07/07 12:37:09;;;;;;;4.32;1.98;;;;;;;;;;5015248;28;20033;-77
2023/07/07 12:39:35;;;;;;;3.00;1.98;;;;;;;;;;5015343;28;20036;-77
2023/07/07 12:42:00;;;;;;;4.28;2.10;;;;;;;;;;4997093;28;20022;-77
2023/07/07 12:44:26;;;;;;;2.58;1.90;;;;;;;;;;5013635;28;20112;-77
2023/07/07 12:46:51;;;;;;;3.83;2.05;;;;;;;;;;5013509;28;20029;-77
2023/07/07 12:49:21;;;;;;;2.87;1.90;;;;;;;;;;5013183;28;20044;-77
2023/07/07 12:51:52;;;;;;;5.80;2.20;;;;;;;;;;5013764;28;20323;-77
2023/07/07 12:54:32;;;;;;;3.47;2.08;;;;;;;;;;5013539;28;20034;-77
2023/07/07 12:57:18;;;;;;;4.78;2.00;;;;;;;;;;5013200;28;20481;-77
2023/07/07 12:59:44;;;;;;;2.90;1.92;;;;;;;;;;4996306;28;20026;-77
2023/07/07 13:02:25;;;;;;;3.08;1.90;;;;;;;;;;5017066;28;20049;-77
2023/07/07 13:04:56;;;;;;;3.75;1.90;;;;;;;;;;5016774;28;20037;-77
2023/07/07 13:07:31;;;;;;;2.67;1.77;;;;;;;;;;5016892;28;20026;-77
2023/07/07 13:09:56;;;;;;;5.22;2.13;;;;;;;;;;5016262;28;20073;-77
2023/07/07 13:12:46;;;;;;;3.25;2.05;;;;;;;;;;5016283;28;20477;-77
2023/07/07 13:15:26;;;;;;;3.88;2.10;;;;;;;;;;5016516;28;20030;-75
2023/07/07 13:17:54;;;;;;;3.17;1.80;;;;;;;;;;4998999;28;20489;-77
2023/07/07 13:20:21;;;;;;;5.15;1.88;;;;;;;;;;5016563;28;20029;-77
2023/07/07 13:22:55;;;;;;;5.07;2.10;;;;;;;;;;5016168;28;20025;-76
2023/07/07 13:25:29;;;;;;;4.05;1.92;;;;;;;;;;5015862;28;20477;-76
2023/07/07 13:27:55;;;;;;;3.40;2.15;;;;;;;;;;4998143;28;20184;-76
2023/07/07 13:30:27;;;;;;;2.17;1.63;;;;;;;;;;5015676;28;20508;-76
2023/07/07 13:32:54;;;;;;;4.78;1.90;;;;;;;;;;5015469;28;20022;-76
2023/07/07 13:35:20;;;;;;;3.08;1.80;;;;;;;;;;4997931;28;20026;-77
2023/07/07 13:37:46;;;;;;;2.15;1.70;;;;;;;;;;5015612;28;20084;-76
2023/07/07 13:40:15;;;;;;;3.08;1.95;;;;;;;;;;4997541;28;20038;-76
2023/07/07 13:42:46;;;;;;;5.43;2.20;;;;;;;;;;5014918;28;20057;-76
2023/07/07 13:45:17;;;;;;;3.95;2.15;;;;;;;;;;5015234;28;20100;-76
2023/07/07 13:47:47;;;;;;;5.57;2.22;;;;;;;;;;5015999;28;20029;-77
2023/07/07 13:50:20;;;;;;;3.20;1.90;;;;;;;;;;4998321;28;20034;-77
2023/07/07 13:52:51;;;;;;;3.80;2.22;;;;;;;;;;5015388;28;20045;-76
2023/07/07 13:55:17;;;;;;;3.30;2.05;;;;;;;;;;4997283;28;20527;-76
2023/07/07 13:57:43;;;;;;;6.25;1.92;;;;;;;;;;5015449;28;20033;-77
2023/07/07 14:00:16;;;;;;;4.50;2.25;;;;;;;;;;5015069;28;20029;-76
2023/07/07 14:02:42;;;;;;;;;;;;;;;;;;5015534;28;20066;-76
2023/07/07 14:05:11;;;;;;;5.20;2.03;;;;;;;;;;5014721;28;19909;-76
2023/07/07 14:07:39;;;;;;;6.32;2.10;;;;;;;;;;5015146;28;20088;-77
2023/07/07 14:10:37;;;;;;;7.15;2.10;;;;;;;;;;4997887;28;20032;-77
2023/07/07 14:13:06;;;;;;;3.25;2.10;;;;;;;;;;5014411;28;20049;-77
2023/07/07 14:15:47;;;;;;;3.53;2.03;;;;;;;;;;4997478;28;20022;-75
2023/07/07 14:18:13;;;;;;;5.40;2.15;;;;;;;;;;5016030;28;20040;-77
2023/07/07 14:20:44;;;;;;;6.75;1.98;;;;;;;;;;5015089;28;20034;-77
2023/07/07 14:23:12;;;;;;;3.53;1.92;;;;;;;;;;4997811;28;20026;-77
2023/07/07 14:25:44;;;;;;;3.17;1.77;;;;;;;;;;5015047;28;20054;-77
2023/07/07 14:28:33;;;;;;;3.15;2.03;;;;;;;;;;5015330;28;20098;-77
2023/07/07 14:31:02;;;;;;;2.35;1.90;;;;;;;;;;4997524;28;20482;-78
2023/07/07 14:33:31;;;;;;;3.90;2.15;;;;;;;;;;5014485;28;20082;-77
2023/07/07 14:35:59;;;;;;;2.42;1.92;;;;;;;;;;5014078;28;20034;-77
2023/07/07 14:38:30;;;;;;;9.18;2.15;;;;;;;;;;4995468;28;20125;-77
2023/07/07 14:40:56;;;;;;;3.83;1.85;;;;;;;;;;5013464;28;20022;-77
2023/07/07 14:43:37;;;;;;;2.97;1.90;;;;;;;;;;5014143;28;20029;-77
2023/07/07 14:46:06;;;;;;;6.88;2.03;;;;;;;;;;5013740;28;20026;-77
2023/07/07 14:48:51;;;;;;;2.90;1.90;;;;;;;;;;5013891;28;20026;-76
2023/07/07 14:51:40;;;;;;;6.05;1.98;;;;;;;;;;5013861;28;20029;-76
2023/07/07 14:54:20;;;;;;;3.05;1.85;;;;;;;;;;4996712;28;20488;-76
2023/07/07 14:56:52;;;;;;;2.67;1.90;;;;;;;;;;5013963;28;20033;-77
2023/07/07 14:59:31;;;;;;;5.45;2.20;;;;;;;;;;5013569;28;20443;-76
2023/07/07 15:02:02;;;;;;;2.88;2.08;;;;;;;;;;5013638;28;20030;-77